sensor_id;sensor_type;location;lat;lon;timestamp;temperature;humidity
9083;DHT22;4577;48.704;9.000;2023-08-24T00:00:50;22.90;78.80
9083;DHT22;4577;48.704;9.000;2023-08-24T00:03:16;22.70;79.50
9083;DHT22;4577;48.704;9.000;2023-08-24T00:05:42;22.50;79.10
9083;DHT22;4577;48.704;9.000;2023-08-24T00:08:09;22.70;79.00
9083;DHT22;4577;48.704;9.000;2023-08-24T00:10:36;22.30;79.90
9083;DHT22;4577;48.704;9.000;2023-08-24T00:13:02;22.40;80.10
9083;DHT22;4577;48.704;9.000;2023-08-24T00:15:28;22.30;80.50
9083;DHT22;4577;48.704;9.000;2023-08-24T00:17:55;22.20;81.10
9083;DHT22;4577;48.704;9.000;2023-08-24T00:20:20;22.10;81.00
9083;DHT22;4577;48.704;9.000;2023-08-24T00:22:46;22.50;81.00
9083;DHT22;4577;48.704;9.000;2023-08-24T00:27:38;22.40;80.50
9083;DHT22;4577;48.704;9.000;2023-08-24T00:30:06;22.30;80.70
9083;DHT22;4577;48.704;9.000;2023-08-24T00:32:35;22.10;81.20
9083;DHT22;4577;48.704;9.000;2023-08-24T00:35:06;22.20;80.70
9083;DHT22;4577;48.704;9.000;2023-08-24T00:37:33;22.30;80.20
9083;DHT22;4577;48.704;9.000;2023-08-24T00:40:02;22.00;80.50
9083;DHT22;4577;48.704;9.000;2023-08-24T00:44:57;21.90;81.20
9083;DHT22;4577;48.704;9.000;2023-08-24T00:47:23;21.90;81.10
9083;DHT22;4577;48.704;9.000;2023-08-24T00:49:50;21.90;79.90
9083;DHT22;4577;48.704;9.000;2023-08-24T00:52:16;22.00;79.90
9083;DHT22;4577;48.704;9.000;2023-08-24T00:54:42;22.30;80.40
9083;DHT22;4577;48.704;9.000;2023-08-24T00:59:34;22.10;81.50
9083;DHT22;4577;48.704;9.000;2023-08-24T01:02:02;21.70;80.90
9083;DHT22;4577;48.704;9.000;2023-08-24T01:04:27;21.60;81.40
9083;DHT22;4577;48.704;9.000;2023-08-24T01:09:20;22.20;82.90
9083;DHT22;4577;48.704;9.000;2023-08-24T01:12:00;21.90;81.60
9083;DHT22;4577;48.704;9.000;2023-08-24T01:17:13;22.00;81.30
9083;DHT22;4577;48.704;9.000;2023-08-24T01:19:45;22.10;81.00
9083;DHT22;4577;48.704;9.000;2023-08-24T01:24:51;21.70;81.90
9083;DHT22;4577;48.704;9.000;2023-08-24T01:27:19;21.80;81.70
9083;DHT22;4577;48.704;9.000;2023-08-24T01:29:46;22.20;81.80
9083;DHT22;4577;48.704;9.000;2023-08-24T01:32:12;21.90;81.00
9083;DHT22;4577;48.704;9.000;2023-08-24T01:34:38;21.30;80.20
9083;DHT22;4577;48.704;9.000;2023-08-24T01:37:08;21.80;80.70
9083;DHT22;4577;48.704;9.000;2023-08-24T01:39:49;21.50;81.10
9083;DHT22;4577;48.704;9.000;2023-08-24T01:42:20;21.20;82.50
9083;DHT22;4577;48.704;9.000;2023-08-24T01:44:52;21.20;83.20
9083;DHT22;4577;48.704;9.000;2023-08-24T01:47:21;21.10;83.60
9083;DHT22;4577;48.704;9.000;2023-08-24T01:49:47;21.10;83.50
9083;DHT22;4577;48.704;9.000;2023-08-24T01:52:14;21.30;83.20
9083;DHT22;4577;48.704;9.000;2023-08-24T01:54:40;21.60;83.10
9083;DHT22;4577;48.704;9.000;2023-08-24T01:57:06;21.40;82.30
9083;DHT22;4577;48.704;9.000;2023-08-24T01:59:32;21.50;82.90
9083;DHT22;4577;48.704;9.000;2023-08-24T02:01:57;21.60;82.80
9083;DHT22;4577;48.704;9.000;2023-08-24T02:04:23;21.50;83.50
9083;DHT22;4577;48.704;9.000;2023-08-24T02:06:49;21.50;82.70
9083;DHT22;4577;48.704;9.000;2023-08-24T02:11:41;21.40;82.60
9083;DHT22;4577;48.704;9.000;2023-08-24T02:14:06;21.60;83.10
9083;DHT22;4577;48.704;9.000;2023-08-24T02:16:32;21.60;84.30
9083;DHT22;4577;48.704;9.000;2023-08-24T02:18:58;21.60;84.30
9083;DHT22;4577;48.704;9.000;2023-08-24T02:21:24;21.50;83.90
9083;DHT22;4577;48.704;9.000;2023-08-24T02:23:49;21.70;83.90
9083;DHT22;4577;48.704;9.000;2023-08-24T02:28:41;21.40;83.40
9083;DHT22;4577;48.704;9.000;2023-08-24T02:31:07;21.50;83.60
9083;DHT22;4577;48.704;9.000;2023-08-24T02:33:33;21.30;83.40
9083;DHT22;4577;48.704;9.000;2023-08-24T02:35:59;21.30;83.70
9083;DHT22;4577;48.704;9.000;2023-08-24T02:38:24;21.50;84.20
9083;DHT22;4577;48.704;9.000;2023-08-24T02:41:03;21.30;83.80
9083;DHT22;4577;48.704;9.000;2023-08-24T02:46:02;20.90;85.00
9083;DHT22;4577;48.704;9.000;2023-08-24T02:48:31;21.30;86.50
9083;DHT22;4577;48.704;9.000;2023-08-24T02:50:58;20.90;86.80
9083;DHT22;4577;48.704;9.000;2023-08-24T02:53:24;21.10;86.20
9083;DHT22;4577;48.704;9.000;2023-08-24T02:55:49;21.10;86.30
9083;DHT22;4577;48.704;9.000;2023-08-24T03:00:41;21.00;85.60
9083;DHT22;4577;48.704;9.000;2023-08-24T03:03:07;21.00;85.80
9083;DHT22;4577;48.704;9.000;2023-08-24T03:07:59;21.20;86.60
9083;DHT22;4577;48.704;9.000;2023-08-24T03:10:25;21.20;86.60
9083;DHT22;4577;48.704;9.000;2023-08-24T03:12:50;21.20;85.90
9083;DHT22;4577;48.704;9.000;2023-08-24T03:15:16;21.30;86.50
9083;DHT22;4577;48.704;9.000;2023-08-24T03:20:08;21.30;85.90
9083;DHT22;4577;48.704;9.000;2023-08-24T03:22:34;21.50;86.10
9083;DHT22;4577;48.704;9.000;2023-08-24T03:25:00;21.40;84.90
9083;DHT22;4577;48.704;9.000;2023-08-24T03:27:25;21.30;85.00
9083;DHT22;4577;48.704;9.000;2023-08-24T03:29:54;20.90;85.90
9083;DHT22;4577;48.704;9.000;2023-08-24T03:34:46;20.90;87.00
9083;DHT22;4577;48.704;9.000;2023-08-24T03:39:38;21.00;85.60
9083;DHT22;4577;48.704;9.000;2023-08-24T03:44:30;20.90;85.90
9083;DHT22;4577;48.704;9.000;2023-08-24T03:46:56;20.70;85.80
9083;DHT22;4577;48.704;9.000;2023-08-24T03:54:14;20.70;86.40
9083;DHT22;4577;48.704;9.000;2023-08-24T04:03:58;20.80;87.30
9083;DHT22;4577;48.704;9.000;2023-08-24T04:06:24;20.90;86.40
9083;DHT22;4577;48.704;9.000;2023-08-24T04:08:49;20.80;86.40
9083;DHT22;4577;48.704;9.000;2023-08-24T04:11:15;20.80;87.50
9083;DHT22;4577;48.704;9.000;2023-08-24T04:13:41;20.80;86.80
9083;DHT22;4577;48.704;9.000;2023-08-24T04:16:06;20.80;87.00
9083;DHT22;4577;48.704;9.000;2023-08-24T04:20:58;21.00;86.70
9083;DHT22;4577;48.704;9.000;2023-08-24T04:23:25;20.70;86.80
9083;DHT22;4577;48.704;9.000;2023-08-24T04:28:20;21.10;88.10
9083;DHT22;4577;48.704;9.000;2023-08-24T04:30:54;20.80;87.20
9083;DHT22;4577;48.704;9.000;2023-08-24T04:33:20;20.80;87.70
9083;DHT22;4577;48.704;9.000;2023-08-24T04:35:49;20.80;87.80
9083;DHT22;4577;48.704;9.000;2023-08-24T04:38:16;20.90;87.70
9083;DHT22;4577;48.704;9.000;2023-08-24T04:40:50;20.80;87.30
9083;DHT22;4577;48.704;9.000;2023-08-24T04:43:21;20.90;87.10
9083;DHT22;4577;48.704;9.000;2023-08-24T04:45:48;20.80;87.30
9083;DHT22;4577;48.704;9.000;2023-08-24T04:48:14;20.90;87.50
9083;DHT22;4577;48.704;9.000;2023-08-24T04:50:43;21.00;87.70
9083;DHT22;4577;48.704;9.000;2023-08-24T04:53:08;20.50;87.10
9083;DHT22;4577;48.704;9.000;2023-08-24T04:55:34;21.00;87.80
9083;DHT22;4577;48.704;9.000;2023-08-24T05:00:26;21.00;88.90
9083;DHT22;4577;48.704;9.000;2023-08-24T05:02:52;21.00;88.30
9083;DHT22;4577;48.704;9.000;2023-08-24T05:05:17;21.00;87.40
9083;DHT22;4577;48.704;9.000;2023-08-24T05:10:09;21.30;88.70
9083;DHT22;4577;48.704;9.000;2023-08-24T05:12:35;21.20;88.50
9083;DHT22;4577;48.704;9.000;2023-08-24T05:15:03;21.00;88.40
9083;DHT22;4577;48.704;9.000;2023-08-24T05:22:23;21.40;90.00
9083;DHT22;4577;48.704;9.000;2023-08-24T05:24:49;21.40;89.50
9083;DHT22;4577;48.704;9.000;2023-08-24T05:32:07;21.00;89.30
9083;DHT22;4577;48.704;9.000;2023-08-24T05:36:59;21.20;89.80
9083;DHT22;4577;48.704;9.000;2023-08-24T05:39:25;21.80;90.20
9083;DHT22;4577;48.704;9.000;2023-08-24T05:41:51;21.30;89.90
9083;DHT22;4577;48.704;9.000;2023-08-24T05:44:18;21.30;89.80
9083;DHT22;4577;48.704;9.000;2023-08-24T05:46:44;21.40;89.60
9083;DHT22;4577;48.704;9.000;2023-08-24T05:51:36;21.50;88.50
9083;DHT22;4577;48.704;9.000;2023-08-24T05:56:28;21.50;88.40
9083;DHT22;4577;48.704;9.000;2023-08-24T05:58:54;21.50;89.10
9083;DHT22;4577;48.704;9.000;2023-08-24T06:01:20;21.50;88.10
9083;DHT22;4577;48.704;9.000;2023-08-24T06:03:46;21.50;88.20
9083;DHT22;4577;48.704;9.000;2023-08-24T06:06:12;21.60;88.10
9083;DHT22;4577;48.704;9.000;2023-08-24T06:08:38;21.70;89.00
9083;DHT22;4577;48.704;9.000;2023-08-24T06:11:07;21.80;88.50
9083;DHT22;4577;48.704;9.000;2023-08-24T06:13:32;21.80;88.40
9083;DHT22;4577;48.704;9.000;2023-08-24T06:15:58;21.80;88.40
9083;DHT22;4577;48.704;9.000;2023-08-24T06:18:24;21.30;88.90
9083;DHT22;4577;48.704;9.000;2023-08-24T06:20:50;21.30;88.80
9083;DHT22;4577;48.704;9.000;2023-08-24T06:23:19;21.50;89.10
9083;DHT22;4577;48.704;9.000;2023-08-24T06:25:45;21.30;88.80
9083;DHT22;4577;48.704;9.000;2023-08-24T06:28:12;21.30;89.20
9083;DHT22;4577;48.704;9.000;2023-08-24T06:30:42;21.50;90.20
9083;DHT22;4577;48.704;9.000;2023-08-24T06:33:12;20.90;90.60
9083;DHT22;4577;48.704;9.000;2023-08-24T06:35:38;20.70;91.20
9083;DHT22;4577;48.704;9.000;2023-08-24T06:38:04;20.70;91.40
9083;DHT22;4577;48.704;9.000;2023-08-24T06:40:30;20.60;92.00
9083;DHT22;4577;48.704;9.000;2023-08-24T06:42:57;20.20;92.70
9083;DHT22;4577;48.704;9.000;2023-08-24T06:45:23;20.40;93.50
9083;DHT22;4577;48.704;9.000;2023-08-24T06:47:49;20.20;93.90
9083;DHT22;4577;48.704;9.000;2023-08-24T06:50:15;20.10;94.90
9083;DHT22;4577;48.704;9.000;2023-08-24T06:52:41;19.90;95.00
9083;DHT22;4577;48.704;9.000;2023-08-24T06:55:09;20.20;95.10
9083;DHT22;4577;48.704;9.000;2023-08-24T06:57:35;20.10;95.10
9083;DHT22;4577;48.704;9.000;2023-08-24T07:02:32;20.50;94.90
9083;DHT22;4577;48.704;9.000;2023-08-24T07:04:58;20.70;94.20
9083;DHT22;4577;48.704;9.000;2023-08-24T07:07:24;21.10;94.00
9083;DHT22;4577;48.704;9.000;2023-08-24T07:09:50;20.80;93.80
9083;DHT22;4577;48.704;9.000;2023-08-24T07:12:16;20.90;94.10
9083;DHT22;4577;48.704;9.000;2023-08-24T07:14:42;21.30;93.30
9083;DHT22;4577;48.704;9.000;2023-08-24T07:17:08;21.30;94.00
9083;DHT22;4577;48.704;9.000;2023-08-24T07:19:33;21.40;93.80
9083;DHT22;4577;48.704;9.000;2023-08-24T07:21:59;21.60;93.90
9083;DHT22;4577;48.704;9.000;2023-08-24T07:26:53;21.30;92.70
9083;DHT22;4577;48.704;9.000;2023-08-24T07:29:20;21.30;92.70
9083;DHT22;4577;48.704;9.000;2023-08-24T07:31:47;21.60;93.60
9083;DHT22;4577;48.704;9.000;2023-08-24T07:39:04;21.90;92.60
9083;DHT22;4577;48.704;9.000;2023-08-24T07:43:56;22.10;92.50
9083;DHT22;4577;48.704;9.000;2023-08-24T07:46:22;21.80;92.30
9083;DHT22;4577;48.704;9.000;2023-08-24T07:51:13;21.90;91.80
9083;DHT22;4577;48.704;9.000;2023-08-24T07:56:05;22.00;91.60
9083;DHT22;4577;48.704;9.000;2023-08-24T08:00:59;22.40;92.40
9083;DHT22;4577;48.704;9.000;2023-08-24T08:03:24;22.30;91.90
9083;DHT22;4577;48.704;9.000;2023-08-24T08:10:43;22.80;90.80
9083;DHT22;4577;48.704;9.000;2023-08-24T08:13:09;20.80;89.50
9083;DHT22;4577;48.704;9.000;2023-08-24T08:15:41;22.80;90.80
9083;DHT22;4577;48.704;9.000;2023-08-24T08:18:09;23.30;90.70
9083;DHT22;4577;48.704;9.000;2023-08-24T08:20:35;22.90;90.10
9083;DHT22;4577;48.704;9.000;2023-08-24T08:23:00;23.40;90.00
9083;DHT22;4577;48.704;9.000;2023-08-24T08:25:26;23.30;88.90
9083;DHT22;4577;48.704;9.000;2023-08-24T08:30:18;23.30;89.50
9083;DHT22;4577;48.704;9.000;2023-08-24T08:32:45;23.70;89.70
9083;DHT22;4577;48.704;9.000;2023-08-24T08:37:37;23.80;90.00
9083;DHT22;4577;48.704;9.000;2023-08-24T08:40:04;24.00;89.50
9083;DHT22;4577;48.704;9.000;2023-08-24T08:42:32;23.90;88.00
9083;DHT22;4577;48.704;9.000;2023-08-24T08:44:59;24.20;87.90
9083;DHT22;4577;48.704;9.000;2023-08-24T08:47:28;24.10;87.90
9083;DHT22;4577;48.704;9.000;2023-08-24T08:49:55;23.90;87.30
9083;DHT22;4577;48.704;9.000;2023-08-24T08:52:21;24.10;87.90
9083;DHT22;4577;48.704;9.000;2023-08-24T08:54:46;24.20;87.80
9083;DHT22;4577;48.704;9.000;2023-08-24T08:57:13;24.30;86.50
9083;DHT22;4577;48.704;9.000;2023-08-24T08:59:40;24.40;87.20
9083;DHT22;4577;48.704;9.000;2023-08-24T09:02:11;24.40;86.40
9083;DHT22;4577;48.704;9.000;2023-08-24T09:04:38;24.90;86.80
9083;DHT22;4577;48.704;9.000;2023-08-24T09:07:04;24.70;87.00
9083;DHT22;4577;48.704;9.000;2023-08-24T09:09:36;24.30;86.40
9083;DHT22;4577;48.704;9.000;2023-08-24T09:12:03;24.50;86.90
9083;DHT22;4577;48.704;9.000;2023-08-24T09:14:30;24.40;86.70
9083;DHT22;4577;48.704;9.000;2023-08-24T09:16:56;24.70;86.80
9083;DHT22;4577;48.704;9.000;2023-08-24T09:19:28;24.50;86.10
9083;DHT22;4577;48.704;9.000;2023-08-24T09:21:59;24.70;86.40
9083;DHT22;4577;48.704;9.000;2023-08-24T09:24:33;24.90;86.60
9083;DHT22;4577;48.704;9.000;2023-08-24T09:26:59;24.70;87.10
9083;DHT22;4577;48.704;9.000;2023-08-24T09:29:25;25.00;87.90
9083;DHT22;4577;48.704;9.000;2023-08-24T09:31:51;25.20;86.90
9083;DHT22;4577;48.704;9.000;2023-08-24T09:34:20;25.50;86.50
9083;DHT22;4577;48.704;9.000;2023-08-24T09:36:47;25.30;86.70
9083;DHT22;4577;48.704;9.000;2023-08-24T09:39:16;25.40;87.30
9083;DHT22;4577;48.704;9.000;2023-08-24T09:41:45;25.20;85.30
9083;DHT22;4577;48.704;9.000;2023-08-24T09:44:11;25.20;86.20
9083;DHT22;4577;48.704;9.000;2023-08-24T09:46:38;25.80;85.20
9083;DHT22;4577;48.704;9.000;2023-08-24T09:49:05;25.50;84.50
9083;DHT22;4577;48.704;9.000;2023-08-24T09:51:33;25.40;84.50
9083;DHT22;4577;48.704;9.000;2023-08-24T09:54:02;26.00;84.70
9083;DHT22;4577;48.704;9.000;2023-08-24T09:56:30;26.20;85.10
9083;DHT22;4577;48.704;9.000;2023-08-24T09:59:00;26.00;83.60
9083;DHT22;4577;48.704;9.000;2023-08-24T10:01:28;25.90;83.60
9083;DHT22;4577;48.704;9.000;2023-08-24T10:03:57;26.10;83.60
9083;DHT22;4577;48.704;9.000;2023-08-24T10:06:27;26.10;84.00
9083;DHT22;4577;48.704;9.000;2023-08-24T10:08:58;26.20;83.50
9083;DHT22;4577;48.704;9.000;2023-08-24T10:11:28;26.60;83.30
9083;DHT22;4577;48.704;9.000;2023-08-24T10:14:13;26.40;83.30
9083;DHT22;4577;48.704;9.000;2023-08-24T10:16:42;26.10;83.50
9083;DHT22;4577;48.704;9.000;2023-08-24T10:19:09;26.10;84.30
9083;DHT22;4577;48.704;9.000;2023-08-24T10:21:37;26.00;84.20
9083;DHT22;4577;48.704;9.000;2023-08-24T10:26:31;26.10;84.40
9083;DHT22;4577;48.704;9.000;2023-08-24T10:28:57;26.30;84.00
9083;DHT22;4577;48.704;9.000;2023-08-24T10:31:23;26.30;83.10
9083;DHT22;4577;48.704;9.000;2023-08-24T10:33:50;26.80;82.70
9083;DHT22;4577;48.704;9.000;2023-08-24T10:36:16;26.80;83.20
9083;DHT22;4577;48.704;9.000;2023-08-24T10:38:43;27.20;82.50
9083;DHT22;4577;48.704;9.000;2023-08-24T10:41:10;26.80;82.90
9083;DHT22;4577;48.704;9.000;2023-08-24T10:43:40;26.70;83.00
9083;DHT22;4577;48.704;9.000;2023-08-24T10:46:13;26.50;82.20
9083;DHT22;4577;48.704;9.000;2023-08-24T10:54:00;27.00;82.40
9083;DHT22;4577;48.704;9.000;2023-08-24T10:56:39;27.10;82.50
9083;DHT22;4577;48.704;9.000;2023-08-24T10:59:15;27.10;83.10
9083;DHT22;4577;48.704;9.000;2023-08-24T11:01:43;26.90;82.30
9083;DHT22;4577;48.704;9.000;2023-08-24T11:04:19;26.80;82.10
9083;DHT22;4577;48.704;9.000;2023-08-24T11:07:00;27.00;82.40
9083;DHT22;4577;48.704;9.000;2023-08-24T11:09:47;26.90;82.40
9083;DHT22;4577;48.704;9.000;2023-08-24T11:12:13;27.00;82.40
9083;DHT22;4577;48.704;9.000;2023-08-24T11:14:54;27.00;82.10
9083;DHT22;4577;48.704;9.000;2023-08-24T11:17:31;27.20;82.20
9083;DHT22;4577;48.704;9.000;2023-08-24T11:19:58;27.40;82.20
9083;DHT22;4577;48.704;9.000;2023-08-24T11:22:25;27.30;82.00
9083;DHT22;4577;48.704;9.000;2023-08-24T11:24:51;27.30;82.00
9083;DHT22;4577;48.704;9.000;2023-08-24T11:27:17;27.20;82.60
9083;DHT22;4577;48.704;9.000;2023-08-24T11:29:46;27.30;82.80
9083;DHT22;4577;48.704;9.000;2023-08-24T11:32:12;27.50;82.90
9083;DHT22;4577;48.704;9.000;2023-08-24T11:34:41;27.20;82.60
9083;DHT22;4577;48.704;9.000;2023-08-24T11:37:18;27.30;83.20
9083;DHT22;4577;48.704;9.000;2023-08-24T11:39:45;27.20;83.50
9083;DHT22;4577;48.704;9.000;2023-08-24T11:42:11;27.20;82.60
9083;DHT22;4577;48.704;9.000;2023-08-24T11:44:47;27.10;82.10
9083;DHT22;4577;48.704;9.000;2023-08-24T11:47:13;27.30;82.90
9083;DHT22;4577;48.704;9.000;2023-08-24T11:49:40;27.50;81.40
9083;DHT22;4577;48.704;9.000;2023-08-24T11:52:06;27.50;81.70
9083;DHT22;4577;48.704;9.000;2023-08-24T11:54:36;27.40;81.90
9083;DHT22;4577;48.704;9.000;2023-08-24T11:57:09;27.60;82.30
9083;DHT22;4577;48.704;9.000;2023-08-24T11:59:38;27.60;82.20
9083;DHT22;4577;48.704;9.000;2023-08-24T12:02:04;27.90;81.60
9083;DHT22;4577;48.704;9.000;2023-08-24T12:04:49;27.80;81.30
9083;DHT22;4577;48.704;9.000;2023-08-24T12:07:15;28.10;80.40
9083;DHT22;4577;48.704;9.000;2023-08-24T12:09:41;28.10;80.20
9083;DHT22;4577;48.704;9.000;2023-08-24T12:12:14;28.40;80.30
9083;DHT22;4577;48.704;9.000;2023-08-24T12:14:43;28.10;80.10
9083;DHT22;4577;48.704;9.000;2023-08-24T12:17:10;28.30;80.90
9083;DHT22;4577;48.704;9.000;2023-08-24T12:19:36;28.20;80.70
9083;DHT22;4577;48.704;9.000;2023-08-24T12:22:01;28.20;80.80
9083;DHT22;4577;48.704;9.000;2023-08-24T12:24:28;28.30;80.50
9083;DHT22;4577;48.704;9.000;2023-08-24T12:26:57;28.10;79.10
9083;DHT22;4577;48.704;9.000;2023-08-24T12:29:23;28.40;79.70
9083;DHT22;4577;48.704;9.000;2023-08-24T12:31:49;28.50;80.60
9083;DHT22;4577;48.704;9.000;2023-08-24T12:36:41;28.50;79.60
9083;DHT22;4577;48.704;9.000;2023-08-24T12:39:11;28.70;79.40
9083;DHT22;4577;48.704;9.000;2023-08-24T12:41:38;28.50;79.70
9083;DHT22;4577;48.704;9.000;2023-08-24T12:44:04;28.60;80.30
9083;DHT22;4577;48.704;9.000;2023-08-24T12:46:38;28.70;79.60
9083;DHT22;4577;48.704;9.000;2023-08-24T12:49:03;28.50;79.80
9083;DHT22;4577;48.704;9.000;2023-08-24T12:51:29;28.50;80.30
9083;DHT22;4577;48.704;9.000;2023-08-24T12:53:55;28.60;80.80
9083;DHT22;4577;48.704;9.000;2023-08-24T12:56:21;28.70;79.90
9083;DHT22;4577;48.704;9.000;2023-08-24T12:58:49;28.50;80.50
9083;DHT22;4577;48.704;9.000;2023-08-24T13:01:15;28.80;76.30
9083;DHT22;4577;48.704;9.000;2023-08-24T13:03:41;29.20;76.20
9083;DHT22;4577;48.704;9.000;2023-08-24T13:06:07;29.20;75.80
9083;DHT22;4577;48.704;9.000;2023-08-24T13:08:32;29.30;75.40
9083;DHT22;4577;48.704;9.000;2023-08-24T13:13:24;29.80;72.80
9083;DHT22;4577;48.704;9.000;2023-08-24T13:15:50;29.80;72.90
9083;DHT22;4577;48.704;9.000;2023-08-24T13:18:18;29.70;73.60
9083;DHT22;4577;48.704;9.000;2023-08-24T13:20:44;29.90;73.40
9083;DHT22;4577;48.704;9.000;2023-08-24T13:23:09;29.70;74.00
9083;DHT22;4577;48.704;9.000;2023-08-24T13:25:35;29.60;73.90
9083;DHT22;4577;48.704;9.000;2023-08-24T13:28:01;29.70;71.80
9083;DHT22;4577;48.704;9.000;2023-08-24T13:30:27;29.80;73.30
9083;DHT22;4577;48.704;9.000;2023-08-24T13:32:53;29.70;71.60
9083;DHT22;4577;48.704;9.000;2023-08-24T13:35:18;29.80;70.20
9083;DHT22;4577;48.704;9.000;2023-08-24T13:37:44;29.70;68.20
9083;DHT22;4577;48.704;9.000;2023-08-24T13:40:10;29.70;67.30
9083;DHT22;4577;48.704;9.000;2023-08-24T13:42:36;29.60;66.70
9083;DHT22;4577;48.704;9.000;2023-08-24T13:45:01;29.50;64.90
9083;DHT22;4577;48.704;9.000;2023-08-24T13:47:28;29.50;65.70
9083;DHT22;4577;48.704;9.000;2023-08-24T13:49:54;29.60;65.60
9083;DHT22;4577;48.704;9.000;2023-08-24T13:52:19;29.50;66.50
9083;DHT22;4577;48.704;9.000;2023-08-24T13:54:45;29.60;66.70
9083;DHT22;4577;48.704;9.000;2023-08-24T13:57:11;29.60;66.70
9083;DHT22;4577;48.704;9.000;2023-08-24T13:59:37;29.70;67.20
9083;DHT22;4577;48.704;9.000;2023-08-24T14:02:04;29.80;67.80
9083;DHT22;4577;48.704;9.000;2023-08-24T14:04:29;29.80;67.70
9083;DHT22;4577;48.704;9.000;2023-08-24T14:06:55;29.80;67.60
9083;DHT22;4577;48.704;9.000;2023-08-24T14:09:21;29.70;67.60
9083;DHT22;4577;48.704;9.000;2023-08-24T14:11:47;29.80;68.10
9083;DHT22;4577;48.704;9.000;2023-08-24T14:14:13;29.90;68.60
9083;DHT22;4577;48.704;9.000;2023-08-24T14:19:05;29.60;68.40
9083;DHT22;4577;48.704;9.000;2023-08-24T14:21:31;29.40;68.50
9083;DHT22;4577;48.704;9.000;2023-08-24T14:28:57;29.80;69.20
9083;DHT22;4577;48.704;9.000;2023-08-24T14:31:27;29.80;69.30
9083;DHT22;4577;48.704;9.000;2023-08-24T14:33:54;29.90;69.90
9083;DHT22;4577;48.704;9.000;2023-08-24T14:36:21;29.70;70.10
9083;DHT22;4577;48.704;9.000;2023-08-24T14:41:14;30.30;68.40
9083;DHT22;4577;48.704;9.000;2023-08-24T14:43:40;30.40;68.60
9083;DHT22;4577;48.704;9.000;2023-08-24T14:46:06;30.30;68.60
9083;DHT22;4577;48.704;9.000;2023-08-24T14:48:33;30.40;69.20
9083;DHT22;4577;48.704;9.000;2023-08-24T14:53:25;29.60;76.90
9083;DHT22;4577;48.704;9.000;2023-08-24T14:55:53;28.60;83.10
9083;DHT22;4577;48.704;9.000;2023-08-24T14:58:26;27.70;87.50
9083;DHT22;4577;48.704;9.000;2023-08-24T15:00:53;26.60;90.70
9083;DHT22;4577;48.704;9.000;2023-08-24T15:05:59;25.90;94.70
9083;DHT22;4577;48.704;9.000;2023-08-24T15:10:53;25.70;96.10
9083;DHT22;4577;48.704;9.000;2023-08-24T15:13:19;25.70;96.30
9083;DHT22;4577;48.704;9.000;2023-08-24T15:23:03;25.30;99.30
9083;DHT22;4577;48.704;9.000;2023-08-24T15:25:29;25.20;97.80
9083;DHT22;4577;48.704;9.000;2023-08-24T15:27:55;25.50;96.70
9083;DHT22;4577;48.704;9.000;2023-08-24T15:30:20;25.60;96.00
9083;DHT22;4577;48.704;9.000;2023-08-24T15:32:46;25.60;95.40
9083;DHT22;4577;48.704;9.000;2023-08-24T15:35:12;26.00;95.30
9083;DHT22;4577;48.704;9.000;2023-08-24T15:40:05;25.70;94.40
9083;DHT22;4577;48.704;9.000;2023-08-24T15:42:31;25.90;94.70
9083;DHT22;4577;48.704;9.000;2023-08-24T15:47:23;25.40;95.10
9083;DHT22;4577;48.704;9.000;2023-08-24T15:54:40;25.20;94.90
9083;DHT22;4577;48.704;9.000;2023-08-24T15:57:06;25.50;95.00
9083;DHT22;4577;48.704;9.000;2023-08-24T15:59:33;25.80;94.70
9083;DHT22;4577;48.704;9.000;2023-08-24T16:01:59;25.90;94.20
9083;DHT22;4577;48.704;9.000;2023-08-24T16:04:24;25.90;93.80
9083;DHT22;4577;48.704;9.000;2023-08-24T16:06:50;25.90;93.70
9083;DHT22;4577;48.704;9.000;2023-08-24T16:14:08;25.80;93.50
9083;DHT22;4577;48.704;9.000;2023-08-24T16:16:36;26.10;93.50
9083;DHT22;4577;48.704;9.000;2023-08-24T16:19:02;26.40;93.40
9083;DHT22;4577;48.704;9.000;2023-08-24T16:21:28;26.40;93.00
9083;DHT22;4577;48.704;9.000;2023-08-24T16:23:55;26.10;92.70
9083;DHT22;4577;48.704;9.000;2023-08-24T16:26:21;25.90;92.70
9083;DHT22;4577;48.704;9.000;2023-08-24T16:28:47;26.00;92.30
9083;DHT22;4577;48.704;9.000;2023-08-24T16:31:15;26.10;91.90
9083;DHT22;4577;48.704;9.000;2023-08-24T16:36:07;26.20;90.90
9083;DHT22;4577;48.704;9.000;2023-08-24T16:40:59;25.90;89.00
9083;DHT22;4577;48.704;9.000;2023-08-24T16:43:25;25.80;88.40
9083;DHT22;4577;48.704;9.000;2023-08-24T16:48:17;26.00;89.10
9083;DHT22;4577;48.704;9.000;2023-08-24T16:50:43;26.20;88.10
9083;DHT22;4577;48.704;9.000;2023-08-24T16:53:09;26.00;86.80
9083;DHT22;4577;48.704;9.000;2023-08-24T16:55:34;26.00;86.40
9083;DHT22;4577;48.704;9.000;2023-08-24T16:58:00;25.90;86.70
9083;DHT22;4577;48.704;9.000;2023-08-24T17:00:26;25.90;86.50
9083;DHT22;4577;48.704;9.000;2023-08-24T17:05:18;25.90;84.80
9083;DHT22;4577;48.704;9.000;2023-08-24T17:08:04;25.90;85.40
9083;DHT22;4577;48.704;9.000;2023-08-24T17:10:31;25.90;86.00
9083;DHT22;4577;48.704;9.000;2023-08-24T17:12:58;26.00;85.40
9083;DHT22;4577;48.704;9.000;2023-08-24T17:15:24;25.90;85.00
9083;DHT22;4577;48.704;9.000;2023-08-24T17:17:50;26.10;85.10
9083;DHT22;4577;48.704;9.000;2023-08-24T17:20:15;26.00;84.20
9083;DHT22;4577;48.704;9.000;2023-08-24T17:22:42;26.10;83.40
9083;DHT22;4577;48.704;9.000;2023-08-24T17:25:08;26.20;83.40
9083;DHT22;4577;48.704;9.000;2023-08-24T17:32:28;26.40;82.90
9083;DHT22;4577;48.704;9.000;2023-08-24T17:34:54;26.10;82.30
9083;DHT22;4577;48.704;9.000;2023-08-24T17:39:45;26.30;82.50
9083;DHT22;4577;48.704;9.000;2023-08-24T17:47:03;26.00;82.90
9083;DHT22;4577;48.704;9.000;2023-08-24T17:49:29;26.00;82.60
9083;DHT22;4577;48.704;9.000;2023-08-24T17:51:54;26.40;83.40
9083;DHT22;4577;48.704;9.000;2023-08-24T17:56:49;26.10;82.60
9083;DHT22;4577;48.704;9.000;2023-08-24T17:59:15;26.10;83.10
9083;DHT22;4577;48.704;9.000;2023-08-24T18:01:40;25.90;83.00
9083;DHT22;4577;48.704;9.000;2023-08-24T18:04:07;26.10;82.70
9083;DHT22;4577;48.704;9.000;2023-08-24T18:06:32;26.10;82.40
9083;DHT22;4577;48.704;9.000;2023-08-24T18:11:25;26.10;82.80
9083;DHT22;4577;48.704;9.000;2023-08-24T18:16:17;25.50;82.80
9083;DHT22;4577;48.704;9.000;2023-08-24T18:21:09;24.70;85.20
9083;DHT22;4577;48.704;9.000;2023-08-24T18:23:35;24.50;88.60
9083;DHT22;4577;48.704;9.000;2023-08-24T18:28:27;23.70;93.40
9083;DHT22;4577;48.704;9.000;2023-08-24T18:30:59;23.60;95.20
9083;DHT22;4577;48.704;9.000;2023-08-24T18:33:25;23.50;97.20
9083;DHT22;4577;48.704;9.000;2023-08-24T18:38:18;23.70;99.90
9083;DHT22;4577;48.704;9.000;2023-08-24T18:43:12;23.10;99.90
9083;DHT22;4577;48.704;9.000;2023-08-24T18:45:37;23.20;99.90
9083;DHT22;4577;48.704;9.000;2023-08-24T18:48:03;23.20;99.90
9083;DHT22;4577;48.704;9.000;2023-08-24T18:55:21;23.10;99.90
9083;DHT22;4577;48.704;9.000;2023-08-24T19:00:13;23.50;99.90
9083;DHT22;4577;48.704;9.000;2023-08-24T19:02:39;22.70;99.90
9083;DHT22;4577;48.704;9.000;2023-08-24T19:05:06;22.50;99.90
9083;DHT22;4577;48.704;9.000;2023-08-24T19:07:32;22.50;99.90
9083;DHT22;4577;48.704;9.000;2023-08-24T19:12:24;22.60;99.90
9083;DHT22;4577;48.704;9.000;2023-08-24T19:17:15;22.20;99.90
9083;DHT22;4577;48.704;9.000;2023-08-24T19:24:33;22.40;99.90
9083;DHT22;4577;48.704;9.000;2023-08-24T19:26:59;22.50;99.90
9083;DHT22;4577;48.704;9.000;2023-08-24T19:29:25;22.60;99.90
9083;DHT22;4577;48.704;9.000;2023-08-24T19:31:51;22.80;99.90
9083;DHT22;4577;48.704;9.000;2023-08-24T19:36:44;22.70;99.90